Beaver Islander — WT5906 — position and weather

sailwx.info

Track history (hours):
 
Tides and Currents Weather Stations Pressure Air Temp Water Temp Dewpoint Dewpoint Depression Visibility Wind Speed Wind Dir Waves Ship Positions

Beaver Islander

Owner: BEAVER ISLAND BOAT CO, CHARLEVOIX, MI. More information available from US FCC via Universal Licensing System and Coast Guard Vessel Documentation Center.

Last reported at 2017-Sep-15 18:19 UTC. Time now 2017-Sep-21 05:08 UTC.
Position N 45°45' W 085°31'.

Length 28 m; draft 3 m.

Type: Passenger vessel. MMSI: 366936060.

Date/timePositionNaut miles runAvg speedWind from/ knotsBaromVisibWave heightAir tempDewpointWater temp
2017-Sep-15 18:19N 45°45' W 085°31'0 0.0
2017-Sep-15 18:00N 45°45' W 085°31'3 6.7
2017-Sep-15 17:30N 45°42' W 085°28'612.9
2017-Sep-15 17:00N 45°36' W 085°26'612.9
2017-Sep-15 16:30N 45°30' W 085°23'612.9
2017-Sep-15 16:00N 45°24' W 085°20'6 5.8
2017-Sep-15 15:03N 45°19' W 085°15'0 0.0
2017-Sep-15 14:57N 45°19' W 085°15'0 1.0
2017-Sep-15 14:30N 45°19' W 085°16'713.0
2017-Sep-15 14:00N 45°25' W 085°19'612.9
2017-Sep-15 13:30N 45°31' W 085°22'612.9
2017-Sep-15 13:00N 45°38' W 085°26'612.9
2017-Sep-15 12:30N 45°44' W 085°29'2 3.5
2017-Sep-15 11:58N 45°45' W 085°31'0 0.0
2017-Sep-15 11:28N 45°45' W 085°31'0 0.0
2017-Sep-15 10:58N 45°45' W 085°31'1 0.1
2017-Sep-15 02:56N 45°44' W 085°30'612.9
2017-Sep-15 02:30N 45°39' W 085°27'713.3
2017-Sep-15 02:00N 45°33' W 085°23'713.2
2017-Sep-15 01:31N 45°27' W 085°20'713.1
2017-Sep-15 01:01N 45°20' W 085°17'2 3.0
2017-Sep-15 00:29N 45°19' W 085°15'2 3.4
2017-Sep-15 00:00N 45°20' W 085°17'713.3
2017-Sep-14 23:30N 45°27' W 085°20'713.3
2017-Sep-14 23:01N 45°33' W 085°23'713.2
2017-Sep-14 22:30N 45°39' W 085°27'612.6
2017-Sep-14 22:01N 45°45' W 085°31'0 0.0
2017-Sep-14 14:41N 45°44' W 085°31'212.3
2017-Sep-14 14:30N 45°43' W 085°29'713.0
2017-Sep-14 14:00N 45°37' W 085°25'713.0
2017-Sep-14 13:30N 45°31' W 085°22'613.0
2017-Sep-14 13:00N 45°25' W 085°19'611.9
2017-Sep-14 12:30N 45°19' W 085°15'0 0.0
2017-Sep-13 20:42N 45°19' W 085°15'1 6.9
2017-Sep-13 20:30N 45°20' W 085°17'713.5
2017-Sep-13 20:00N 45°27' W 085°20'713.3
2017-Sep-13 19:30N 45°33' W 085°23'713.3
2017-Sep-13 19:00N 45°39' W 085°27'612.6
2017-Sep-13 18:30N 45°45' W 085°31'0 0.6
2017-Sep-13 18:00N 45°45' W 085°31'4 8.0
2017-Sep-13 17:30N 45°42' W 085°28'713.1
2017-Sep-13 17:00N 45°35' W 085°25'713.0
2017-Sep-13 16:30N 45°29' W 085°21'612.9
2017-Sep-13 16:00N 45°23' W 085°18'5 3.4
2017-Sep-13 14:39N 45°19' W 085°15'0 2.2
2017-Sep-13 14:30N 45°19' W 085°16'612.5
2017-Sep-13 14:00N 45°25' W 085°19'713.2
2017-Sep-13 13:30N 45°31' W 085°22'713.0
2017-Sep-13 13:00N 45°37' W 085°26'613.0
2017-Sep-13 12:30N 45°43' W 085°29'2 3.9
2017-Sep-13 11:59N 45°45' W 085°31'0 0.0
2017-Sep-13 11:26N 45°45' W 085°31'0 0.0
2017-Sep-13 10:59N 45°45' W 085°31'0 0.0
2017-Sep-13 10:26N 45°45' W 085°31'0 0.0
2017-Sep-11 23:38N 45°45' W 085°31'212.6
2017-Sep-11 23:30N 45°43' W 085°29'713.4
2017-Sep-11 23:00N 45°37' W 085°25'713.2
2017-Sep-11 22:30N 45°31' W 085°22'612.9
2017-Sep-11 22:00N 45°25' W 085°19'612.4
2017-Sep-11 21:30N 45°19' W 085°15'0 0.0
2017-Sep-11 20:42N 45°19' W 085°15'0 1.0
2017-Sep-11 20:30N 45°19' W 085°16'612.7
2017-Sep-11 20:00N 45°25' W 085°19'713.2
2017-Sep-11 19:30N 45°31' W 085°22'713.1
2017-Sep-11 19:00N 45°37' W 085°26'613.0
2017-Sep-11 18:30N 45°43' W 085°29'2 4.2
2017-Sep-11 17:59N 45°45' W 085°31'3 5.3
2017-Sep-11 17:31N 45°43' W 085°29'713.2
2017-Sep-11 17:00N 45°37' W 085°26'713.0
2017-Sep-11 16:30N 45°31' W 085°23'612.7
2017-Sep-11 16:00N 45°25' W 085°19'6 4.3
2017-Sep-11 14:35N 45°19' W 085°15'0 4.0
2017-Sep-11 14:30N 45°19' W 085°16'612.8
2017-Sep-11 14:00N 45°25' W 085°19'713.1
2017-Sep-11 13:30N 45°31' W 085°22'612.9
2017-Sep-11 13:01N 45°37' W 085°26'612.8
2017-Sep-11 12:30N 45°43' W 085°29'2 3.7
2017-Sep-11 11:57N 45°45' W 085°31'0 0.0
2017-Sep-11 11:26N 45°45' W 085°31'0 0.0
2017-Sep-11 10:44N 45°45' W 085°31'0 0.0
2017-Sep-11 10:26N 45°45' W 085°31'0 0.0
2017-Sep-10 20:44N 45°45' W 085°31'211.2
2017-Sep-10 20:31N 45°43' W 085°29'713.2
2017-Sep-10 20:00N 45°37' W 085°25'613.0
2017-Sep-10 19:31N 45°31' W 085°22'612.8
2017-Sep-10 19:01N 45°25' W 085°19'6 6.6
2017-Sep-10 18:07N 45°19' W 085°15'0 0.1
2017-Sep-10 17:38N 45°19' W 085°15'1 7.9
2017-Sep-10 17:30N 45°20' W 085°16'713.1
2017-Sep-10 17:01N 45°26' W 085°20'713.1
2017-Sep-10 16:30N 45°32' W 085°23'612.9
2017-Sep-10 16:00N 45°38' W 085°26'612.6
2017-Sep-10 15:30N 45°44' W 085°30'1 2.3
2017-Sep-10 14:57N 45°45' W 085°31'9 9.1
2017-Sep-10 14:00N 45°37' W 085°25'713.1
2017-Sep-10 13:30N 45°31' W 085°22'713.0
2017-Sep-10 13:00N 45°25' W 085°19'6 4.5
2017-Sep-10 11:36N 45°19' W 085°15'0 4.1
2017-Sep-10 11:30N 45°19' W 085°16'612.9
2017-Sep-10 11:00N 45°25' W 085°19'713.0
2017-Sep-10 10:30N 45°31' W 085°22'613.0
2017-Sep-10 10:00N 45°37' W 085°26'612.8
2017-Sep-10 09:30N 45°43' W 085°29'2 3.5
2017-Sep-10 08:56N 45°45' W 085°31'0 0.0
2017-Sep-10 08:26N 45°45' W 085°31'0 0.0
2017-Sep-10 07:56N 45°45' W 085°31'0 0.0
2017-Sep-10 07:26N 45°45' W 085°31'1 0.0
2017-Sep-09 17:41N 45°44' W 085°31'212.2
2017-Sep-09 17:30N 45°43' W 085°29'713.1
2017-Sep-09 17:00N 45°37' W 085°25'613.0
2017-Sep-09 16:30N 45°31' W 085°22'612.9
2017-Sep-09 16:00N 45°25' W 085°19'6 4.2
2017-Sep-09 14:37N 45°19' W 085°15'0 3.3
2017-Sep-09 14:30N 45°19' W 085°16'612.8
2017-Sep-09 14:00N 45°25' W 085°19'713.1
2017-Sep-09 13:31N 45°31' W 085°22'713.1
2017-Sep-09 13:01N 45°37' W 085°26'712.9
2017-Sep-09 12:30N 45°44' W 085°29'2 2.8
2017-Sep-09 11:50N 45°45' W 085°31'0 0.0
2017-Sep-09 11:20N 45°45' W 085°31'0 0.0
2017-Sep-09 10:56N 45°45' W 085°31'2 0.1
2017-Sep-08 17:42N 45°44' W 085°29'212.6
2017-Sep-08 17:30N 45°42' W 085°28'612.7
2017-Sep-08 17:00N 45°36' W 085°25'612.7
2017-Sep-08 16:30N 45°30' W 085°22'612.8
2017-Sep-08 16:00N 45°24' W 085°18'5 5.5
2017-Sep-08 15:04N 45°19' W 085°15'0 0.0
2017-Sep-08 14:58N 45°19' W 085°15'0 0.9
2017-Sep-08 14:30N 45°19' W 085°16'612.9
2017-Sep-08 14:00N 45°25' W 085°19'612.8
2017-Sep-08 13:30N 45°31' W 085°22'613.0
2017-Sep-08 13:00N 45°37' W 085°26'713.0
2017-Sep-08 12:30N 45°44' W 085°29'2 1.7
2017-Sep-08 11:24N 45°45' W 085°31'0 0.0
2017-Sep-08 11:00N 45°45' W 085°31'3 0.2
2017-Sep-07 17:27N 45°42' W 085°28'612.8
2017-Sep-07 17:01N 45°37' W 085°25'612.8
2017-Sep-07 16:31N 45°31' W 085°22'612.8
2017-Sep-07 16:00N 45°25' W 085°19'6 4.1
2017-Sep-07 14:32N 45°19' W 085°15'0 7.4
2017-Sep-07 14:30N 45°19' W 085°16'612.4
2017-Sep-07 14:00N 45°25' W 085°19'613.0
2017-Sep-07 13:31N 45°31' W 085°22'713.2
2017-Sep-07 13:00N 45°37' W 085°26'713.1
2017-Sep-07 12:30N 45°43' W 085°29'2 3.6
2017-Sep-07 11:55N 45°45' W 085°31'0 0.0
2017-Sep-07 11:25N 45°45' W 085°31'0 0.0
2017-Sep-07 10:55N 45°45' W 085°31'0 0.0
2017-Sep-07 10:25N 45°45' W 085°31'1 0.1
2017-Sep-06 17:37N 45°44' W 085°30'112.5
2017-Sep-06 17:30N 45°43' W 085°28'612.9
2017-Sep-06 17:00N 45°37' W 085°25'612.9
2017-Sep-06 16:30N 45°31' W 085°22'612.9
2017-Sep-06 16:00N 45°25' W 085°19'6 4.3
2017-Sep-06 14:36N 45°19' W 085°15'0 2.8
2017-Sep-06 14:30N 45°19' W 085°16'612.4
2017-Sep-06 14:01N 45°25' W 085°19'713.0
2017-Sep-06 13:30N 45°31' W 085°22'613.1
2017-Sep-06 13:00N 45°37' W 085°26'713.1
2017-Sep-06 12:30N 45°43' W 085°29'2 3.4
2017-Sep-06 11:53N 45°45' W 085°31'0 0.0
2017-Sep-06 11:11N 45°45' W 085°31'0 0.0
2017-Sep-06 10:59N 45°45' W 085°31'0 0.0
2017-Sep-06 10:29N 45°45' W 085°31'1 0.1
2017-Sep-05 23:05N 45°44' W 085°30'113.1
2017-Sep-05 23:00N 45°44' W 085°29'713.2
2017-Sep-05 22:31N 45°37' W 085°26'713.3
2017-Sep-05 22:01N 45°31' W 085°22'713.3
2017-Sep-05 21:30N 45°25' W 085°19'6 6.9
2017-Sep-05 20:35N 45°19' W 085°15'0 2.9
2017-Sep-05 20:30N 45°19' W 085°16'612.2
2017-Sep-05 20:00N 45°25' W 085°19'713.1
2017-Sep-05 19:31N 45°31' W 085°22'713.2
2017-Sep-05 19:00N 45°37' W 085°25'713.2
2017-Sep-05 18:30N 45°43' W 085°29'  
Track history (hours):
 
Tides and Currents Weather Stations Pressure Air Temp Water Temp Dewpoint Dewpoint Depression Visibility Wind Speed Wind Dir Waves Ship Positions

Beaver Islander

Owner: BEAVER ISLAND BOAT CO, CHARLEVOIX, MI. More information available from US FCC via Universal Licensing System and Coast Guard Vessel Documentation Center.

Last reported at 2017-Sep-15 18:19 UTC. Time now 2017-Sep-21 05:08 UTC.
Position N 45°45' W 085°31'.

Length 28 m; draft 3 m.

Type: Passenger vessel. MMSI: 366936060.

Date/timePositionNaut miles runAvg speedWind from/ knotsBaromVisibWave heightAir tempDewpointWater temp
2017-Sep-15 18:19N 45°45' W 085°31'0 0.0
2017-Sep-15 18:00N 45°45' W 085°31'3 6.7
2017-Sep-15 17:30N 45°42' W 085°28'612.9
2017-Sep-15 17:00N 45°36' W 085°26'612.9
2017-Sep-15 16:30N 45°30' W 085°23'612.9
2017-Sep-15 16:00N 45°24' W 085°20'6 5.8
2017-Sep-15 15:03N 45°19' W 085°15'0 0.0
2017-Sep-15 14:57N 45°19' W 085°15'0 1.0
2017-Sep-15 14:30N 45°19' W 085°16'713.0
2017-Sep-15 14:00N 45°25' W 085°19'612.9
2017-Sep-15 13:30N 45°31' W 085°22'612.9
2017-Sep-15 13:00N 45°38' W 085°26'612.9
2017-Sep-15 12:30N 45°44' W 085°29'2 3.5
2017-Sep-15 11:58N 45°45' W 085°31'0 0.0
2017-Sep-15 11:28N 45°45' W 085°31'0 0.0
2017-Sep-15 10:58N 45°45' W 085°31'1 0.1
2017-Sep-15 02:56N 45°44' W 085°30'612.9
2017-Sep-15 02:30N 45°39' W 085°27'713.3
2017-Sep-15 02:00N 45°33' W 085°23'713.2
2017-Sep-15 01:31N 45°27' W 085°20'713.1
2017-Sep-15 01:01N 45°20' W 085°17'2 3.0
2017-Sep-15 00:29N 45°19' W 085°15'2 3.4
2017-Sep-15 00:00N 45°20' W 085°17'713.3
2017-Sep-14 23:30N 45°27' W 085°20'713.3
2017-Sep-14 23:01N 45°33' W 085°23'713.2
2017-Sep-14 22:30N 45°39' W 085°27'612.6
2017-Sep-14 22:01N 45°45' W 085°31'0 0.0
2017-Sep-14 14:41N 45°44' W 085°31'212.3
2017-Sep-14 14:30N 45°43' W 085°29'713.0
2017-Sep-14 14:00N 45°37' W 085°25'713.0
2017-Sep-14 13:30N 45°31' W 085°22'613.0
2017-Sep-14 13:00N 45°25' W 085°19'611.9
2017-Sep-14 12:30N 45°19' W 085°15'0 0.0
2017-Sep-13 20:42N 45°19' W 085°15'1 6.9
2017-Sep-13 20:30N 45°20' W 085°17'713.5
2017-Sep-13 20:00N 45°27' W 085°20'713.3
2017-Sep-13 19:30N 45°33' W 085°23'713.3
2017-Sep-13 19:00N 45°39' W 085°27'612.6
2017-Sep-13 18:30N 45°45' W 085°31'0 0.6
2017-Sep-13 18:00N 45°45' W 085°31'4 8.0
2017-Sep-13 17:30N 45°42' W 085°28'713.1
2017-Sep-13 17:00N 45°35' W 085°25'713.0
2017-Sep-13 16:30N 45°29' W 085°21'612.9
2017-Sep-13 16:00N 45°23' W 085°18'5 3.4
2017-Sep-13 14:39N 45°19' W 085°15'0 2.2
2017-Sep-13 14:30N 45°19' W 085°16'612.5
2017-Sep-13 14:00N 45°25' W 085°19'713.2
2017-Sep-13 13:30N 45°31' W 085°22'713.0
2017-Sep-13 13:00N 45°37' W 085°26'613.0
2017-Sep-13 12:30N 45°43' W 085°29'2 3.9
2017-Sep-13 11:59N 45°45' W 085°31'0 0.0
2017-Sep-13 11:26N 45°45' W 085°31'0 0.0
2017-Sep-13 10:59N 45°45' W 085°31'0 0.0
2017-Sep-13 10:26N 45°45' W 085°31'0 0.0
2017-Sep-11 23:38N 45°45' W 085°31'212.6
2017-Sep-11 23:30N 45°43' W 085°29'713.4
2017-Sep-11 23:00N 45°37' W 085°25'713.2
2017-Sep-11 22:30N 45°31' W 085°22'612.9
2017-Sep-11 22:00N 45°25' W 085°19'612.4
2017-Sep-11 21:30N 45°19' W 085°15'0 0.0
2017-Sep-11 20:42N 45°19' W 085°15'0 1.0
2017-Sep-11 20:30N 45°19' W 085°16'612.7
2017-Sep-11 20:00N 45°25' W 085°19'713.2
2017-Sep-11 19:30N 45°31' W 085°22'713.1
2017-Sep-11 19:00N 45°37' W 085°26'613.0
2017-Sep-11 18:30N 45°43' W 085°29'2 4.2
2017-Sep-11 17:59N 45°45' W 085°31'3 5.3
2017-Sep-11 17:31N 45°43' W 085°29'713.2
2017-Sep-11 17:00N 45°37' W 085°26'713.0
2017-Sep-11 16:30N 45°31' W 085°23'612.7
2017-Sep-11 16:00N 45°25' W 085°19'6 4.3
2017-Sep-11 14:35N 45°19' W 085°15'0 4.0
2017-Sep-11 14:30N 45°19' W 085°16'612.8
2017-Sep-11 14:00N 45°25' W 085°19'713.1
2017-Sep-11 13:30N 45°31' W 085°22'612.9
2017-Sep-11 13:01N 45°37' W 085°26'612.8
2017-Sep-11 12:30N 45°43' W 085°29'2 3.7
2017-Sep-11 11:57N 45°45' W 085°31'0 0.0
2017-Sep-11 11:26N 45°45' W 085°31'0 0.0
2017-Sep-11 10:44N 45°45' W 085°31'0 0.0
2017-Sep-11 10:26N 45°45' W 085°31'0 0.0
2017-Sep-10 20:44N 45°45' W 085°31'211.2
2017-Sep-10 20:31N 45°43' W 085°29'713.2
2017-Sep-10 20:00N 45°37' W 085°25'613.0
2017-Sep-10 19:31N 45°31' W 085°22'612.8
2017-Sep-10 19:01N 45°25' W 085°19'6 6.6
2017-Sep-10 18:07N 45°19' W 085°15'0 0.1
2017-Sep-10 17:38N 45°19' W 085°15'1 7.9
2017-Sep-10 17:30N 45°20' W 085°16'713.1
2017-Sep-10 17:01N 45°26' W 085°20'713.1
2017-Sep-10 16:30N 45°32' W 085°23'612.9
2017-Sep-10 16:00N 45°38' W 085°26'612.6
2017-Sep-10 15:30N 45°44' W 085°30'1 2.3
2017-Sep-10 14:57N 45°45' W 085°31'9 9.1
2017-Sep-10 14:00N 45°37' W 085°25'713.1
2017-Sep-10 13:30N 45°31' W 085°22'713.0
2017-Sep-10 13:00N 45°25' W 085°19'6 4.5
2017-Sep-10 11:36N 45°19' W 085°15'0 4.1
2017-Sep-10 11:30N 45°19' W 085°16'612.9
2017-Sep-10 11:00N 45°25' W 085°19'713.0
2017-Sep-10 10:30N 45°31' W 085°22'613.0
2017-Sep-10 10:00N 45°37' W 085°26'612.8
2017-Sep-10 09:30N 45°43' W 085°29'2 3.5
2017-Sep-10 08:56N 45°45' W 085°31'0 0.0
2017-Sep-10 08:26N 45°45' W 085°31'0 0.0
2017-Sep-10 07:56N 45°45' W 085°31'0 0.0
2017-Sep-10 07:26N 45°45' W 085°31'1 0.0
2017-Sep-09 17:41N 45°44' W 085°31'212.2
2017-Sep-09 17:30N 45°43' W 085°29'713.1
2017-Sep-09 17:00N 45°37' W 085°25'613.0
2017-Sep-09 16:30N 45°31' W 085°22'612.9
2017-Sep-09 16:00N 45°25' W 085°19'6 4.2
2017-Sep-09 14:37N 45°19' W 085°15'0 3.3
2017-Sep-09 14:30N 45°19' W 085°16'612.8
2017-Sep-09 14:00N 45°25' W 085°19'713.1
2017-Sep-09 13:31N 45°31' W 085°22'713.1
2017-Sep-09 13:01N 45°37' W 085°26'712.9
2017-Sep-09 12:30N 45°44' W 085°29'2 2.8
2017-Sep-09 11:50N 45°45' W 085°31'0 0.0
2017-Sep-09 11:20N 45°45' W 085°31'0 0.0
2017-Sep-09 10:56N 45°45' W 085°31'2 0.1
2017-Sep-08 17:42N 45°44' W 085°29'212.6
2017-Sep-08 17:30N 45°42' W 085°28'612.7
2017-Sep-08 17:00N 45°36' W 085°25'612.7
2017-Sep-08 16:30N 45°30' W 085°22'612.8
2017-Sep-08 16:00N 45°24' W 085°18'5 5.5
2017-Sep-08 15:04N 45°19' W 085°15'0 0.0
2017-Sep-08 14:58N 45°19' W 085°15'0 0.9
2017-Sep-08 14:30N 45°19' W 085°16'612.9
2017-Sep-08 14:00N 45°25' W 085°19'612.8
2017-Sep-08 13:30N 45°31' W 085°22'613.0
2017-Sep-08 13:00N 45°37' W 085°26'713.0
2017-Sep-08 12:30N 45°44' W 085°29'2 1.7
2017-Sep-08 11:24N 45°45' W 085°31'0 0.0
2017-Sep-08 11:00N 45°45' W 085°31'3 0.2
2017-Sep-07 17:27N 45°42' W 085°28'612.8
2017-Sep-07 17:01N 45°37' W 085°25'612.8
2017-Sep-07 16:31N 45°31' W 085°22'612.8
2017-Sep-07 16:00N 45°25' W 085°19'6 4.1
2017-Sep-07 14:32N 45°19' W 085°15'0 7.4
2017-Sep-07 14:30N 45°19' W 085°16'612.4
2017-Sep-07 14:00N 45°25' W 085°19'613.0
2017-Sep-07 13:31N 45°31' W 085°22'713.2
2017-Sep-07 13:00N 45°37' W 085°26'713.1
2017-Sep-07 12:30N 45°43' W 085°29'2 3.6
2017-Sep-07 11:55N 45°45' W 085°31'0 0.0
2017-Sep-07 11:25N 45°45' W 085°31'0 0.0
2017-Sep-07 10:55N 45°45' W 085°31'0 0.0
2017-Sep-07 10:25N 45°45' W 085°31'1 0.1
2017-Sep-06 17:37N 45°44' W 085°30'112.5
2017-Sep-06 17:30N 45°43' W 085°28'612.9
2017-Sep-06 17:00N 45°37' W 085°25'612.9
2017-Sep-06 16:30N 45°31' W 085°22'612.9
2017-Sep-06 16:00N 45°25' W 085°19'6 4.3
2017-Sep-06 14:36N 45°19' W 085°15'0 2.8
2017-Sep-06 14:30N 45°19' W 085°16'612.4
2017-Sep-06 14:01N 45°25' W 085°19'713.0
2017-Sep-06 13:30N 45°31' W 085°22'613.1
2017-Sep-06 13:00N 45°37' W 085°26'713.1
2017-Sep-06 12:30N 45°43' W 085°29'2 3.4
2017-Sep-06 11:53N 45°45' W 085°31'0 0.0
2017-Sep-06 11:11N 45°45' W 085°31'0 0.0
2017-Sep-06 10:59N 45°45' W 085°31'0 0.0
2017-Sep-06 10:29N 45°45' W 085°31'1 0.1
2017-Sep-05 23:05N 45°44' W 085°30'113.1
2017-Sep-05 23:00N 45°44' W 085°29'713.2
2017-Sep-05 22:31N 45°37' W 085°26'713.3
2017-Sep-05 22:01N 45°31' W 085°22'713.3
2017-Sep-05 21:30N 45°25' W 085°19'6 6.9
2017-Sep-05 20:35N 45°19' W 085°15'0 2.9
2017-Sep-05 20:30N 45°19' W 085°16'612.2
2017-Sep-05 20:00N 45°25' W 085°19'713.1
2017-Sep-05 19:31N 45°31' W 085°22'713.2
2017-Sep-05 19:00N 45°37' W 085°25'713.2
2017-Sep-05 18:30N 45°43' W 085°29'  

Dump ship's entire track history